Burns, Colorado
Current Conditions -  °F | °C
As of 5:50 PM on Friday 19 Dec 2014 (Local Time) from KEGE Reporting Station
Clear Clear  
Wind Chill: 17°   Ceiling: Unl
Heat Index: 27°   Visibility: 10mi
Dew Point: 21°   Wind: 9mph
Humidity: 80%   Direction: 80°E
Pressure: 30.2"   Gusts: NA
Location:  39.87°N, 106.89°W
Report Text: KEGE 200050Z 08008KT 10SM SKC M03/M06 A3020
Loading
Personal Weather Stations






























Interactive Weather Map New forecast layout! Learn more

10-Day Weather Forecast

Advertisements
Track Severe Weather on mobile